Time;durP1;ratioP1;P1;durP2;ratioP2;P2;SDS_P1;SDS_P2;PMS_P1;PMS_P2;Temp;Humidity;BMP_temperature;BMP_pressure;BME280_temperature;BME280_humidity;BME280_pressure;Samples;Min_cycle;Max_cycle;Signal;HPM_P1;HPM_P2
2022/06/02 00:02:00;;;;;;;1.27;1.17;;;;;;;8.49;100.00;100565.31;5073000;28;20635;-76
2022/06/02 00:04:30;;;;;;;0.90;0.90;;;;;;;8.46;100.00;100558.56;5072867;28;20175;-74
2022/06/02 00:07:14;;;;;;;0.87;0.73;;;;;;;8.46;100.00;100558.56;5073008;28;20174;-72
2022/06/02 00:09:49;;;;;;;1.30;1.23;;;;;;;8.43;100.00;100564.59;5072671;28;20528;-75
2022/06/02 00:12:26;;;;;;;1.90;1.27;;;;;;;8.45;100.00;100569.75;5072828;28;20176;-75
2022/06/02 00:15:41;;;;;;;1.63;1.53;;;;;;;8.45;100.00;100567.84;5072720;28;20163;-73
2022/06/02 00:18:20;;;;;;;0.97;0.80;;;;;;;8.44;100.00;100576.31;5029360;28;20273;-72
2022/06/02 00:21:28;;;;;;;0.90;0.90;;;;;;;8.40;100.00;100580.72;5030250;28;20175;-72
2022/06/02 00:23:56;;;;;;;0.93;0.93;;;;;;;8.41;100.00;100594.03;5059789;28;20669;-72
2022/06/02 00:26:45;;;;;;;0.50;0.50;;;;;;;8.41;100.00;100598.69;5072404;28;20228;-72
2022/06/02 00:29:45;;;;;;;2.90;2.70;;;;;;;8.38;100.00;100600.03;5061837;28;20190;-71
2022/06/02 00:32:19;;;;;;;1.90;1.80;;;;;;;8.38;100.00;100604.69;5072273;28;20183;-72
2022/06/02 00:34:55;;;;;;;0.93;0.93;;;;;;;8.35;100.00;100601.44;5071898;28;20635;-72
2022/06/02 00:37:23;;;;;;;1.70;1.60;;;;;;;8.32;100.00;100612.91;5071294;28;20696;-72
2022/06/02 00:39:50;;;;;;;1.47;1.37;;;;;;;8.30;100.00;100606.94;5071451;28;20521;-74
2022/06/02 00:42:27;;;;;;;3.23;3.03;;;;;;;8.28;100.00;100611.88;5071913;28;20584;-73
2022/06/02 00:44:57;;;;;;;1.70;1.60;;;;;;;8.26;100.00;100616.00;5070314;28;20444;-73
2022/06/02 00:47:57;;;;;;;1.63;1.53;;;;;;;8.25;100.00;100617.09;5071100;28;20178;-72
2022/06/02 00:50:48;;;;;;;2.73;1.67;;;;;;;8.25;100.00;100620.63;5071056;28;20206;-72
2022/06/02 00:53:20;;;;;;;1.67;1.57;;;;;;;8.25;100.00;100619.81;5071838;28;20250;-71
2022/06/02 00:59:21;;;;;;;1.73;1.63;;;;;;;8.21;100.00;100625.00;5069772;28;20185;-71
2022/06/02 01:01:46;;;;;;;1.40;1.37;;;;;;;8.17;100.00;100632.13;5071489;28;20154;-71
2022/06/02 01:04:16;;;;;;;1.00;1.00;;;;;;;8.13;100.00;100625.66;5071229;28;20567;-72
2022/06/02 01:06:48;;;;;;;2.33;2.23;;;;;;;8.12;100.00;100623.25;5071208;28;20251;-73
2022/06/02 01:09:19;;;;;;;2.37;1.93;;;;;;;8.07;100.00;100634.97;5070965;28;20570;-71
2022/06/02 01:12:06;;;;;;;1.93;1.83;;;;;;;8.06;100.00;100638.78;5071251;28;20175;-71
2022/06/02 01:15:02;;;;;;;3.03;2.83;;;;;;;8.04;100.00;100641.00;5071227;28;20191;-72
2022/06/02 01:17:44;;;;;;;2.97;2.77;;;;;;;8.03;100.00;100647.53;5070786;28;20191;-71
2022/06/02 01:20:18;;;;;;;2.20;2.00;;;;;;;8.02;100.00;100638.56;5071466;28;20263;-72
2022/06/02 01:23:34;;;;;;;3.37;3.17;;;;;;;8.00;100.00;100635.34;5071119;28;20158;-72
2022/06/02 01:26:19;;;;;;;1.77;1.70;;;;;;;7.99;100.00;100635.63;5026248;28;20190;-73
2022/06/02 01:29:20;;;;;;;2.27;2.17;;;;;;;7.97;100.00;100646.81;5069994;28;20583;-72
2022/06/02 01:31:48;;;;;;;2.67;2.47;;;;;;;7.96;100.00;100636.22;5071272;28;20173;-72
2022/06/02 01:34:53;;;;;;;2.70;2.50;;;;;;;7.92;100.00;100646.03;5071025;28;20206;-72
2022/06/02 01:37:44;;;;;;;4.50;4.10;;;;;;;7.93;100.00;100645.72;5055971;28;20808;-72
2022/06/02 01:40:28;;;;;;;4.40;4.03;;;;;;;7.90;100.00;100651.75;5070931;28;20178;-71
2022/06/02 01:43:11;;;;;;;3.07;2.70;;;;;;;7.91;100.00;100647.13;5070880;28;20183;-71
2022/06/02 01:46:05;;;;;;;2.77;2.63;;;;;;;7.90;100.00;100650.94;5070857;28;20182;-71
2022/06/02 01:48:40;;;;;;;7.73;5.17;;;;;;;7.87;100.00;100660.50;5070283;28;20189;-71
2022/06/02 01:51:43;;;;;;;3.33;3.13;;;;;;;7.88;100.00;100655.88;5071148;28;20169;-72
2022/06/02 01:54:27;;;;;;;1.30;1.20;;;;;;;7.89;100.00;100662.94;5070796;28;20189;-72
2022/06/02 01:56:59;;;;;;;3.00;2.47;;;;;;;7.91;100.00;100664.25;5070025;28;20260;-75
2022/06/02 01:59:27;;;;;;;4.33;4.03;;;;;;;7.91;100.00;100658.00;5070560;28;20603;-73
2022/06/02 02:02:10;;;;;;;1.00;1.00;;;;;;;7.93;100.00;100659.34;5071340;28;20232;-74
2022/06/02 02:05:14;;;;;;;4.23;3.90;;;;;;;7.92;100.00;100662.34;5074938;28;20167;-74
2022/06/02 02:07:54;;;;;;;4.77;4.47;;;;;;;7.90;100.00;100664.56;5074340;28;20181;-73
2022/06/02 02:10:29;;;;;;;5.67;2.23;;;;;;;7.90;100.00;100667.28;5075199;28;20163;-74
2022/06/02 02:13:00;;;;;;;2.37;2.27;;;;;;;7.91;100.00;100668.88;5074979;28;20182;-73
2022/06/02 02:15:43;;;;;;;5.57;5.17;;;;;;;7.89;100.00;100668.38;5074886;28;20167;-73
2022/06/02 02:18:53;;;;;;;5.23;4.83;;;;;;;7.89;100.00;100673.81;5074261;28;20257;-75
2022/06/02 02:21:48;;;;;;;5.73;5.23;;;;;;;7.89;100.00;100676.53;5074775;28;20170;-74
2022/06/02 02:24:48;;;;;;;8.27;4.20;;;;;;;7.97;100.00;100686.78;5074746;28;20210;-71
2022/06/02 02:27:16;;;;;;;5.47;5.07;;;;;;;7.95;100.00;100678.91;5074305;28;20181;-71
2022/06/02 02:29:48;;;;;;;4.10;3.80;;;;;;;7.96;100.00;100679.75;5074297;28;20166;-72
2022/06/02 02:32:26;;;;;;;3.90;3.60;;;;;;;7.97;100.00;100679.44;5073449;28;20194;-71
2022/06/02 02:35:21;;;;;;;4.40;4.00;;;;;;;8.00;100.00;100678.06;5074798;28;20170;-71
2022/06/02 02:37:57;;;;;;;5.43;5.03;;;;;;;8.02;100.00;100681.28;5074450;28;20202;-71
2022/06/02 02:40:32;;;;;;;3.67;3.47;;;;;;;8.02;100.00;100684.81;5074504;28;20231;-72
2022/06/02 02:43:24;;;;;;;2.83;2.63;;;;;;;8.02;100.00;100684.00;5074696;28;20528;-71
2022/06/02 02:45:59;;;;;;;4.90;4.50;;;;;;;7.98;100.00;100682.97;5074702;28;20202;-73
2022/06/02 02:48:42;;;;;;;6.53;5.00;;;;;;;7.99;100.00;100681.88;5074249;28;20192;-71
2022/06/02 02:51:16;;;;;;;3.80;3.47;;;;;;;7.97;100.00;100686.78;5074110;28;20177;-71
2022/06/02 02:53:51;;;;;;;3.57;3.23;;;;;;;7.94;100.00;100695.50;5073803;28;20534;-70
2022/06/02 02:56:24;;;;;;;4.50;4.13;;;;;;;7.95;100.00;100691.69;5073770;28;20239;-71
2022/06/02 02:59:22;;;;;;;5.73;5.33;;;;;;;7.91;100.00;100698.81;5071339;28;20535;-71
2022/06/02 03:02:04;;;;;;;6.93;6.40;;;;;;;7.92;100.00;100697.72;5073262;28;20187;-71
2022/06/02 03:04:40;;;;;;;4.97;4.67;;;;;;;7.92;100.00;100698.53;5073446;28;20166;-71
2022/06/02 03:07:06;;;;;;;13.27;4.27;;;;;;;7.94;100.00;100696.31;5073501;28;20159;-71
2022/06/02 03:09:42;;;;;;;8.57;7.83;;;;;;;7.97;100.00;100700.41;5073268;28;20222;-71
2022/06/02 03:12:32;;;;;;;4.93;4.53;;;;;;;7.95;100.00;100699.84;5073554;28;20548;-71
2022/06/02 03:15:12;;;;;;;8.70;7.87;;;;;;;7.92;100.00;100700.44;5072693;28;20174;-72
2022/06/02 03:17:43;;;;;;;6.57;5.93;;;;;;;7.94;100.00;100700.94;5072636;28;20589;-73
2022/06/02 03:20:37;;;;;;;32.47;5.20;;;;;;;7.93;100.00;100699.34;5073579;28;20270;-74
2022/06/02 03:23:25;;;;;;;4.00;3.70;;;;;;;7.89;100.00;100696.38;5073657;28;20186;-73
2022/06/02 03:26:00;;;;;;;7.17;6.50;;;;;;;7.87;100.00;100698.59;5073198;28;20173;-71
2022/06/02 03:28:31;;;;;;;3.27;3.07;;;;;;;7.89;100.00;100704.53;5072632;28;20178;-71
2022/06/02 03:31:11;;;;;;;5.70;5.33;;;;;;;7.87;100.00;100708.66;5073250;28;20186;-71
2022/06/02 03:34:25;;;;;;;8.13;7.47;;;;;;;7.87;100.00;100714.91;5073210;28;20171;-71
2022/06/02 03:37:06;;;;;;;4.37;4.17;;;;;;;7.85;100.00;100711.66;5011540;28;20222;-71
2022/06/02 03:39:34;;;;;;;5.73;5.20;;;;;;;7.85;100.00;100708.94;5072670;28;20253;-71
2022/06/02 03:42:21;;;;;;;20.67;5.43;;;;;;;7.90;100.00;100711.59;5073170;28;20163;-72
2022/06/02 03:45:14;;;;;;;6.27;3.77;;;;;;;7.94;100.00;100718.09;5073064;28;20588;-72
2022/06/02 03:47:45;;;;;;;6.27;5.77;;;;;;;7.98;100.00;100718.34;5072198;28;20179;-71
2022/06/02 03:50:41;;;;;;;6.30;5.80;;;;;;;7.98;100.00;100723.78;5072823;28;20167;-71
2022/06/02 03:53:18;;;;;;;6.23;5.80;;;;;;;8.00;100.00;100729.75;5072735;28;20230;-71
2022/06/02 03:55:49;;;;;;;5.57;5.17;;;;;;;8.00;100.00;100722.41;5072544;28;20170;-71
2022/06/02 03:58:50;;;;;;;9.60;8.80;;;;;;;8.03;100.00;100729.16;5069750;28;20332;-72
2022/06/02 04:01:24;;;;;;;5.20;4.87;;;;;;;8.06;100.00;100734.03;5057744;28;20201;-71
2022/06/02 04:04:19;;;;;;;5.83;5.43;;;;;;;8.08;100.00;100745.44;5072464;28;20209;-71
2022/06/02 04:07:11;;;;;;;3.60;3.33;;;;;;;8.12;100.00;100742.97;5072581;28;20171;-70
2022/06/02 04:09:54;;;;;;;5.40;4.93;;;;;;;8.13;100.00;100747.31;5072242;28;20221;-72
2022/06/02 04:16:04;;;;;;;3.70;3.50;;;;;;;8.18;100.00;100763.59;5072190;28;20189;-71
2022/06/02 04:18:38;;;;;;;6.70;6.10;;;;;;;8.17;100.00;100773.66;5071332;28;20239;-71
2022/06/02 04:21:20;;;;;;;4.50;3.83;;;;;;;8.22;100.00;100778.22;5072132;28;20181;-71
2022/06/02 04:24:07;;;;;;;7.10;6.50;;;;;;;8.20;100.00;100783.16;5072197;28;20600;-71
2022/06/02 04:26:42;;;;;;;6.93;6.37;;;;;;;8.22;100.00;100783.66;5072018;28;20182;-71
2022/06/02 04:29:29;;;;;;;5.37;4.83;;;;;;;8.24;100.00;100779.56;5071987;28;20170;-71
2022/06/02 04:32:22;;;;;;;6.37;5.77;;;;;;;8.28;100.00;100786.06;5072045;28;20174;-71
2022/06/02 04:35:15;;;;;;;12.83;7.00;;;;;;;8.29;100.00;100798.59;5071991;28;20167;-72
2022/06/02 04:37:45;;;;;;;6.40;3.37;;;;;;;8.30;100.00;100783.88;5071289;28;20229;-71
2022/06/02 04:40:27;;;;;;;9.27;8.20;;;;;;;8.33;100.00;100794.19;5071773;28;20174;-71
2022/06/02 04:43:11;;;;;;;7.83;6.83;;;;;;;8.38;100.00;100797.97;5071723;28;20167;-72
2022/06/02 04:46:04;;;;;;;5.20;4.83;;;;;;;8.42;100.00;100805.28;5071441;28;20236;-71
2022/06/02 04:48:53;;;;;;;7.80;7.13;;;;;;;8.44;100.00;100803.09;5070034;28;20167;-71
2022/06/02 04:51:42;;;;;;;4.40;4.07;;;;;;;8.48;100.00;100814.22;5057347;28;20194;-71
2022/06/02 04:54:37;;;;;;;7.77;7.17;;;;;;;8.50;100.00;100806.56;5071830;28;20171;-71
2022/06/02 04:57:16;;;;;;;13.10;9.63;;;;;;;8.56;100.00;100814.41;5070369;28;20244;-71
2022/06/02 05:00:04;;;;;;;7.37;6.77;;;;;;;8.65;100.00;100823.53;5071536;28;20178;-71
2022/06/02 05:02:35;;;;;;;7.83;6.93;;;;;;;8.69;100.00;100818.34;5071445;28;20634;-73
2022/06/02 05:05:27;;;;;;;8.40;7.70;;;;;;;8.72;100.00;100827.84;5071352;28;20634;-71
2022/06/02 05:08:05;;;;;;;6.27;5.83;;;;;;;8.76;100.00;100821.53;5069281;28;20576;-71
2022/06/02 05:10:56;;;;;;;4.57;4.23;;;;;;;8.77;100.00;100825.88;5071122;28;20174;-71
2022/06/02 05:13:43;;;;;;;11.13;10.00;;;;;;;8.81;100.00;100829.63;5071170;28;20167;-71
2022/06/02 05:16:42;;;;;;;16.23;4.73;;;;;;;8.84;100.00;100826.34;5071420;28;20170;-71
2022/06/02 05:19:17;;;;;;;8.33;7.60;;;;;;;8.91;100.00;100834.97;5071021;28;20205;-70
2022/06/02 05:21:46;;;;;;;5.20;4.80;;;;;;;8.93;100.00;100838.22;5071171;28;20158;-71
2022/06/02 05:24:20;;;;;;;8.80;5.97;;;;;;;8.94;100.00;100842.56;5071177;28;20261;-71
2022/06/02 05:27:13;;;;;;;6.90;6.23;;;;;;;9.03;100.00;100844.66;5070707;28;20184;-71
2022/06/02 05:29:57;;;;;;;8.80;7.93;;;;;;;9.05;100.00;100848.72;5070774;28;20261;-71
2022/06/02 05:32:43;;;;;;;4.13;3.70;;;;;;;9.04;100.00;100859.91;5070700;28;20484;-71
2022/06/02 05:35:29;;;;;;;4.27;3.93;;;;;;;9.07;100.00;100862.03;5070920;28;20170;-71
2022/06/02 05:38:10;;;;;;;9.60;7.03;;;;;;;9.19;100.00;100871.44;5069658;28;20198;-71
2022/06/02 05:40:45;;;;;;;14.37;5.27;;;;;;;9.32;100.00;100871.84;5070881;28;20176;-71
2022/06/02 05:43:33;;;;;;;4.60;4.33;;;;;;;9.32;100.00;100882.75;5070870;28;20176;-71
2022/06/02 05:46:19;;;;;;;5.77;5.37;;;;;;;9.37;100.00;100888.13;5068486;28;20175;-72
2022/06/02 05:48:47;;;;;;;3.40;3.10;;;;;;;9.41;100.00;100889.19;5070673;28;20215;-73
2022/06/02 05:51:12;;;;;;;8.20;7.33;;;;;;;9.39;100.00;100894.09;5071395;28;20174;-71
2022/06/02 05:54:04;;;;;;;6.00;5.60;;;;;;;9.43;100.00;100889.69;5071212;28;20537;-71
2022/06/02 05:56:29;;;;;;;25.27;5.60;;;;;;;9.45;100.00;100899.19;5070822;28;20183;-72
2022/06/02 05:59:06;;;;;;;4.53;3.93;;;;;;;9.45;100.00;100901.13;5069578;28;20224;-72
2022/06/02 06:01:43;;;;;;;2.57;2.43;;;;;;;9.54;100.00;100900.16;5071154;28;20633;-72
2022/06/02 06:04:17;;;;;;;19.57;7.97;;;;;;;9.61;100.00;100901.72;5071072;28;20181;-71
2022/06/02 06:06:54;;;;;;;6.83;5.80;;;;;;;9.81;100.00;100898.69;5070916;28;20613;-72
2022/06/02 06:09:19;;;;;;;1.17;1.17;;;;;;;9.93;100.00;100906.44;5070783;28;20171;-71
2022/06/02 06:12:17;;;;;;;9.03;8.33;;;;;;;10.00;100.00;100909.63;5071372;28;20190;-71
2022/06/02 06:15:03;;;;;;;0.23;0.23;;;;;;;10.05;100.00;100915.81;5070955;28;20174;-73
2022/06/02 06:17:54;;;;;;;6.63;4.10;;;;;;;10.07;100.00;100912.78;5070447;28;20197;-72
2022/06/02 06:20:51;;;;;;;3.40;3.13;;;;;;;10.22;100.00;100918.03;5071042;28;20169;-71
2022/06/02 06:23:16;;;;;;;1.00;0.60;;;;;;;10.28;100.00;100919.59;5070979;28;20270;-73
2022/06/02 06:26:03;;;;;;;7.23;2.87;;;;;;;10.45;100.00;100921.78;5070733;28;20264;-72
2022/06/02 06:28:34;;;;;;;2.90;2.47;;;;;;;10.54;100.00;100922.69;5070286;28;20166;-73
2022/06/02 06:31:30;;;;;;;7.03;6.43;;;;;;;10.55;100.00;100929.78;5071003;28;20527;-71
2022/06/02 06:34:11;;;;;;;6.33;5.93;;;;;;;10.37;100.00;100938.84;5036025;28;20186;-71
2022/06/02 06:37:05;;;;;;;6.60;6.10;;;;;;;10.28;100.00;100937.91;5069878;28;20194;-71
2022/06/02 06:39:49;;;;;;;1.87;1.83;;;;;;;10.36;100.00;100939.94;5069961;28;20174;-72
2022/06/02 06:42:40;;;;;;;0.83;0.83;;;;;;;10.51;100.00;100944.34;5070196;28;20379;-71
2022/06/02 06:45:18;;;;;;;0.80;0.80;;;;;;;10.61;100.00;100941.47;5068694;28;20267;-72
2022/06/02 06:48:00;;;;;;;3.00;2.43;;;;;;;10.62;100.00;100943.88;5069451;28;20640;-71
2022/06/02 06:50:34;;;;;;;0.83;0.83;;;;;;;10.65;100.00;100945.22;5074329;28;20170;-71
2022/06/02 06:53:36;;;;;;;5.17;4.87;;;;;;;10.52;100.00;100944.03;5073931;28;20178;-71
2022/06/02 06:56:22;;;;;;;2.00;1.90;;;;;;;10.53;100.00;100950.31;5073857;28;20170;-71
2022/06/02 06:59:28;;;;;;;4.20;2.47;;;;;;;10.57;100.00;100952.19;5071842;28;20178;-72
2022/06/02 07:02:02;;;;;;;2.33;2.23;;;;;;;10.63;100.00;100952.91;5069416;28;20197;-72
2022/06/02 07:04:36;;;;;;;0.00;0.00;;;;;;;10.64;100.00;100949.84;5066045;28;20188;-78
2022/06/02 07:07:35;;;;;;;2.87;2.67;;;;;;;10.79;100.00;100954.25;5073787;28;20202;-71
2022/06/02 07:10:17;;;;;;;2.33;2.13;;;;;;;10.92;100.00;100960.88;5054104;28;20179;-71
2022/06/02 07:13:09;;;;;;;2.70;2.00;;;;;;;11.01;100.00;100961.81;5053888;28;20201;-72
2022/06/02 07:15:56;;;;;;;5.27;4.77;;;;;;;11.03;100.00;100963.13;5053763;28;20168;-73
2022/06/02 07:18:33;;;;;;;5.40;4.63;;;;;;;10.99;100.00;100969.47;5053361;28;20205;-72
2022/06/02 07:21:29;;;;;;;1.73;1.63;;;;;;;11.28;100.00;100961.84;5068091;28;20668;-72
2022/06/02 07:24:09;;;;;;;4.90;4.50;;;;;;;11.20;100.00;100957.06;5073679;28;20185;-73
2022/06/02 07:26:51;;;;;;;1.77;1.67;;;;;;;11.30;100.00;100958.78;5073539;28;20196;-72
2022/06/02 07:29:43;;;;;;;1.30;1.30;;;;;;;11.52;100.00;100963.53;5073394;28;20166;-72
2022/06/02 07:32:47;;;;;;;8.20;6.17;;;;;;;11.54;100.00;100958.56;5069270;28;20198;-72
2022/06/02 07:35:35;;;;;;;1.07;1.07;;;;;;;11.47;100.00;100967.19;5070512;28;20189;-75
2022/06/02 07:38:18;;;;;;;3.53;3.27;;;;;;;11.65;100.00;100953.69;5072968;28;20206;-72
2022/06/02 07:41:04;;;;;;;2.03;1.93;;;;;;;11.54;100.00;100958.56;5053539;28;20623;-71
2022/06/02 07:44:07;;;;;;;3.80;3.60;;;;;;;11.71;100.00;100956.00;5053646;28;20229;-77
2022/06/02 07:46:38;;;;;;;1.57;1.47;;;;;;;11.88;100.00;100958.16;5053142;28;20174;-72
2022/06/02 07:49:28;;;;;;;0.37;0.37;;;;;;;12.06;99.38;100959.13;5053111;28;20175;-75
2022/06/02 07:51:59;;;;;;;2.70;1.53;;;;;;;12.42;99.62;100965.38;5062761;28;20190;-71
2022/06/02 07:54:37;;;;;;;1.83;1.73;;;;;;;12.35;96.62;100961.47;5073159;28;20705;-72
2022/06/02 07:57:33;;;;;;;1.50;1.50;;;;;;;12.08;94.25;100971.41;5071900;28;20201;-72
2022/06/02 08:00:28;;;;;;;2.33;0.53;;;;;;;12.24;95.75;100968.31;5072303;28;20178;-72
2022/06/02 08:03:15;;;;;;;1.73;1.63;;;;;;;12.33;93.51;100964.53;5070979;28;20221;-73
2022/06/02 08:05:51;;;;;;;2.03;1.93;;;;;;;12.46;91.72;100963.66;5066165;28;20553;-73
2022/06/02 08:08:24;;;;;;;0.17;0.17;;;;;;;12.66;91.36;100964.28;5065694;28;20181;-74
2022/06/02 08:11:03;;;;;;;3.80;3.50;;;;;;;12.66;89.64;100967.00;5073196;28;20170;-72
2022/06/02 08:13:45;;;;;;;1.93;1.83;;;;;;;12.57;89.88;100969.69;5053196;28;20163;-74
2022/06/02 08:16:23;;;;;;;1.07;1.07;;;;;;;12.65;88.25;100970.88;5051394;28;20246;-74
2022/06/02 08:19:12;;;;;;;0.53;0.53;;;;;;;12.71;86.52;100977.84;5052613;28;20179;-72
2022/06/02 08:21:43;;;;;;;2.90;2.70;;;;;;;12.76;86.46;100983.22;5051500;28;20274;-72
2022/06/02 08:24:28;;;;;;;0.87;0.87;;;;;;;12.68;87.50;100989.44;5061642;28;20697;-72
2022/06/02 08:27:09;;;;;;;0.00;0.00;;;;;;;12.42;86.52;100976.34;5072311;28;20174;-74
2022/06/02 08:30:02;;;;;;;3.67;3.37;;;;;;;12.47;84.87;100981.72;5072116;28;20577;-72
2022/06/02 08:33:05;;;;;;;0.40;0.40;;;;;;;12.65;82.55;100984.59;5072465;28;20247;-72
2022/06/02 08:35:33;;;;;;;1.33;1.23;;;;;;;12.81;82.03;100991.31;5070039;28;20312;-74
2022/06/02 08:38:04;;;;;;;2.03;1.83;;;;;;;13.05;81.81;100994.53;5069995;28;20198;-72
2022/06/02 08:40:57;;;;;;;1.87;1.77;;;;;;;13.19;80.44;100999.16;5072191;28;20626;-72
2022/06/02 08:43:25;;;;;;;1.40;1.30;;;;;;;13.06;79.02;100996.16;5072013;28;20572;-72
2022/06/02 08:46:18;;;;;;;1.57;1.17;;;;;;;12.89;79.86;100995.25;5072183;28;20236;-74
2022/06/02 08:49:16;;;;;;;0.30;0.30;;;;;;;12.92;80.34;100997.34;5071619;28;20187;-73
2022/06/02 08:51:50;;;;;;;6.63;2.30;;;;;;;13.23;80.96;101005.63;5072150;28;20177;-74
2022/06/02 08:54:33;;;;;;;4.37;3.57;;;;;;;13.49;81.84;100998.31;5071782;28;20192;-71
2022/06/02 08:57:20;;;;;;;2.30;2.20;;;;;;;13.48;79.52;100999.44;5070851;28;20194;-71
2022/06/02 09:00:18;;;;;;;2.97;1.13;;;;;;;13.56;77.97;101000.59;5071690;28;20219;-72
2022/06/02 09:03:29;;;;;;;1.40;1.30;;;;;;;13.60;76.02;101007.88;5058073;28;20592;-74
2022/06/02 09:06:12;;;;;;;3.13;2.17;;;;;;;13.60;76.84;101010.63;5051678;28;20262;-73
2022/06/02 09:09:16;;;;;;;0.93;0.93;;;;;;;13.74;77.66;101013.25;5051333;28;20681;-74
2022/06/02 09:12:16;;;;;;;1.57;1.47;;;;;;;13.74;78.27;101013.25;5056232;28;20583;-72
2022/06/02 09:15:17;;;;;;;1.70;1.60;;;;;;;13.48;78.14;101010.41;5067384;28;20186;-72
2022/06/02 09:17:48;;;;;;;0.87;0.70;;;;;;;13.64;76.03;101019.84;5069605;28;20696;-74
2022/06/02 09:20:28;;;;;;;0.00;0.00;;;;;;;13.86;76.39;101018.94;5071640;28;20206;-73
2022/06/02 09:23:09;;;;;;;0.33;0.33;;;;;;;14.08;74.26;101012.53;5071462;28;20646;-72
2022/06/02 09:25:53;;;;;;;1.10;0.97;;;;;;;14.37;73.70;101022.09;5071393;28;20530;-74
2022/06/02 09:28:24;;;;;;;2.77;2.57;;;;;;;14.19;74.52;101026.78;5070966;28;20228;-72
2022/06/02 09:31:03;;;;;;;2.60;1.63;;;;;;;13.97;74.09;101025.75;5071471;28;20561;-73
2022/06/02 09:34:01;;;;;;;1.77;1.67;;;;;;;14.08;72.19;101031.75;5071500;28;20166;-72
2022/06/02 09:36:58;;;;;;;1.00;0.90;;;;;;;14.38;71.58;101027.28;5071066;28;20197;-72
2022/06/02 09:39:51;;;;;;;0.30;0.30;;;;;;;14.23;69.47;101025.00;5071046;28;20641;-72
2022/06/02 09:42:45;;;;;;;1.67;1.57;;;;;;;14.50;72.18;101029.41;5071287;28;20219;-72
2022/06/02 09:45:36;;;;;;;1.10;1.07;;;;;;;14.17;71.49;101031.75;5071009;28;20190;-71
2022/06/02 09:48:15;;;;;;;0.90;0.90;;;;;;;14.33;71.36;101029.38;5070551;28;20178;-72
2022/06/02 09:50:46;;;;;;;1.50;1.40;;;;;;;14.49;71.29;101033.31;5071089;28;20221;-72
2022/06/02 09:53:32;;;;;;;1.43;1.10;;;;;;;14.78;71.03;101033.44;5070974;28;20224;-72
2022/06/02 09:56:19;;;;;;;0.57;0.57;;;;;;;14.59;68.79;101031.00;5071002;28;20665;-72
2022/06/02 09:59:21;;;;;;;0.60;0.50;;;;;;;14.87;70.44;101039.72;5068158;28;20311;-72
2022/06/02 10:01:54;;;;;;;0.20;0.20;;;;;;;15.03;70.54;101034.53;5071006;28;20180;-72
2022/06/02 10:04:30;;;;;;;0.20;0.20;;;;;;;15.14;70.17;101046.81;5071309;28;20151;-73
2022/06/02 10:07:17;;;;;;;0.67;0.60;;;;;;;14.80;67.73;101052.38;5070743;28;20177;-73
2022/06/02 10:09:42;;;;;;;0.33;0.33;;;;;;;14.62;67.54;101037.84;5070651;28;20162;-73
2022/06/02 10:15:14;;;;;;;1.50;1.43;;;;;;;15.36;68.19;101047.75;5070620;28;20201;-74
2022/06/02 10:17:56;;;;;;;0.70;0.70;;;;;;;15.59;66.63;101045.53;5069765;28;20654;-72
2022/06/02 10:20:33;;;;;;;1.33;0.77;;;;;;;15.68;67.24;101038.09;5070542;28;20185;-72
2022/06/02 10:23:12;;;;;;;0.00;0.00;;;;;;;15.51;66.97;101038.13;5051293;28;20244;-71
2022/06/02 10:25:51;;;;;;;0.03;0.03;;;;;;;15.39;66.43;101041.56;5056464;28;20178;-72
2022/06/02 10:28:42;;;;;;;0.77;0.27;;;;;;;15.35;66.38;101035.94;5057803;28;20630;-72
2022/06/02 10:31:44;;;;;;;1.13;1.03;;;;;;;15.37;65.51;101036.41;5055766;28;20559;-72
2022/06/02 10:34:40;;;;;;;0.20;0.20;;;;;;;15.26;64.49;101043.41;5054483;28;20628;-74
2022/06/02 10:37:21;;;;;;;0.00;0.00;;;;;;;15.52;65.38;101046.06;5054728;28;20187;-72
2022/06/02 10:39:49;;;;;;;0.00;0.00;;;;;;;15.70;63.83;101046.81;5055004;28;20186;-71
2022/06/02 10:42:38;;;;;;;2.47;0.87;;;;;;;15.52;64.82;101048.81;5054919;28;20506;-71
2022/06/02 10:45:13;;;;;;;0.30;0.30;;;;;;;15.77;63.82;101055.41;5054587;28;20417;-71
2022/06/02 10:48:12;;;;;;;0.10;0.10;;;;;;;16.02;63.59;101040.66;5054005;28;20206;-71
2022/06/02 10:51:12;;;;;;;0.23;0.23;;;;;;;16.28;63.18;101037.75;5054583;28;20250;-72
2022/06/02 10:54:20;;;;;;;1.20;1.20;;;;;;;16.29;62.01;101044.06;5054098;28;20237;-73
2022/06/02 10:57:04;;;;;;;0.20;0.20;;;;;;;16.32;62.59;101044.19;5025188;28;20687;-71
2022/06/02 11:00:24;;;;;;;3.90;0.50;;;;;;;16.26;60.66;101044.72;5053449;28;20167;-71
2022/06/02 11:03:14;;;;;;;0.43;0.43;;;;;;;16.43;60.46;101044.59;4987673;28;20199;-71
2022/06/02 11:06:04;;;;;;;0.53;0.53;;;;;;;16.28;59.22;101037.75;5076914;28;20209;-71
2022/06/02 11:08:51;;;;;;;0.83;0.73;;;;;;;16.41;59.55;101044.13;5073603;28;20665;-71
2022/06/02 11:11:38;;;;;;;0.30;0.30;;;;;;;16.42;57.12;101040.22;5074378;28;20516;-71
2022/06/02 11:14:28;;;;;;;0.87;0.13;;;;;;;16.76;57.78;101036.41;5073796;28;20174;-71
2022/06/02 11:17:00;;;;;;;0.50;0.50;;;;;;;16.71;58.41;101031.09;5073586;28;20194;-71
2022/06/02 11:19:45;;;;;;;0.03;0.03;;;;;;;16.73;58.39;101033.50;5073796;28;20673;-71
2022/06/02 11:22:38;;;;;;;0.60;0.60;;;;;;;16.48;57.59;101036.13;5074253;28;20225;-72
2022/06/02 11:25:03;;;;;;;0.17;0.17;;;;;;;16.49;57.39;101029.47;5073829;28;20201;-72
2022/06/02 11:27:59;;;;;;;0.00;0.00;;;;;;;16.73;59.01;101026.03;5072070;28;20622;-73
2022/06/02 11:31:05;;;;;;;0.00;0.00;;;;;;;17.33;58.71;101026.56;5073506;28;20174;-73
2022/06/02 11:33:55;;;;;;;0.23;0.23;;;;;;;17.46;56.81;101025.44;5073469;28;20559;-72
2022/06/02 11:36:37;;;;;;;1.00;1.00;;;;;;;16.71;54.42;101019.25;5072292;28;20209;-72
2022/06/02 11:39:02;;;;;;;0.90;0.83;;;;;;;16.13;56.23;101026.50;5073534;28;20162;-72
2022/06/02 11:41:36;;;;;;;0.10;0.10;;;;;;;16.35;60.07;101015.97;5073448;28;20590;-73
2022/06/02 11:44:10;;;;;;;0.00;0.00;;;;;;;16.45;60.05;101016.69;5073328;28;20213;-73
2022/06/02 11:47:07;;;;;;;0.00;0.00;;;;;;;16.24;58.32;101025.78;5073290;28;20163;-72
2022/06/02 11:50:16;;;;;;;0.13;0.13;;;;;;;16.26;60.57;101022.69;5072616;28;20210;-72
2022/06/02 11:53:09;;;;;;;0.20;0.20;;;;;;;16.27;59.02;101022.34;5069950;28;20206;-72
2022/06/02 11:55:42;;;;;;;0.00;0.00;;;;;;;16.64;59.84;101014.25;5072826;28;20621;-72
2022/06/02 11:58:40;;;;;;;0.00;0.00;;;;;;;17.06;59.00;101022.47;5071766;28;20252;-72
2022/06/02 12:01:15;;;;;;;0.03;0.03;;;;;;;16.83;57.43;101014.59;5073436;28;20193;-72
2022/06/02 12:03:50;;;;;;;0.00;0.00;;;;;;;16.56;58.79;101013.19;5073184;28;20166;-73
2022/06/02 12:06:31;;;;;;;0.30;0.30;;;;;;;16.49;58.49;101029.47;5072936;28;20612;-72
2022/06/02 12:09:33;;;;;;;0.00;0.00;;;;;;;16.40;59.90;101017.69;5071708;28;20241;-72
2022/06/02 12:12:41;;;;;;;0.00;0.00;;;;;;;16.55;61.46;101019.84;5069035;28;20557;-72
2022/06/02 12:15:27;;;;;;;0.10;0.07;;;;;;;16.62;58.29;101020.09;5072478;28;20224;-71
2022/06/02 12:18:13;;;;;;;0.00;0.00;;;;;;;16.74;59.02;101016.63;5072270;28;20195;-71
2022/06/02 12:21:23;;;;;;;0.00;0.00;;;;;;;16.25;59.09;101019.13;5072568;28;20163;-72
2022/06/02 12:24:12;;;;;;;0.43;0.23;;;;;;;16.09;59.62;101022.78;5072465;28;20259;-73
2022/06/02 12:27:10;;;;;;;0.00;0.00;;;;;;;16.49;59.32;101025.88;5072380;28;20162;-72
2022/06/02 12:29:57;;;;;;;0.40;0.40;;;;;;;16.60;56.88;101022.38;5072366;28;20166;-72
2022/06/02 12:32:50;;;;;;;0.40;0.40;;;;;;;16.62;59.37;101022.06;5072257;28;20201;-73
2022/06/02 12:35:36;;;;;;;3.10;1.03;;;;;;;16.60;57.10;101027.09;5072098;28;20183;-72
2022/06/02 12:38:33;;;;;;;0.13;0.13;;;;;;;16.63;58.78;101026.41;5071843;28;20561;-72
2022/06/02 12:41:41;;;;;;;0.37;0.30;;;;;;;16.82;58.33;101025.97;5056128;28;20201;-72
2022/06/02 12:44:41;;;;;;;0.00;0.00;;;;;;;17.42;59.64;101030.03;5072147;28;20189;-73
2022/06/02 12:47:24;;;;;;;3.07;0.40;;;;;;;17.84;57.88;101030.69;5071951;28;20206;-73
2022/06/02 12:50:04;;;;;;;0.93;0.63;;;;;;;17.59;55.55;101029.03;5072130;28;20162;-71
2022/06/02 12:53:06;;;;;;;0.00;0.00;;;;;;;17.70;57.30;101027.44;5066834;28;20341;-72
2022/06/02 12:55:50;;;;;;;0.00;0.00;;;;;;;17.61;55.72;101023.94;5066139;28;20239;-72